createdAt,value
2018-11-06T00:01:51.002Z,100759.79
2018-11-06T00:04:19.562Z,100853.09
2018-11-06T00:06:48.802Z,100852.15
2018-11-06T00:09:17.308Z,100850.37
2018-11-06T00:11:45.955Z,100842.45
2018-11-06T00:14:14.411Z,100834.62
2018-11-06T00:16:42.950Z,100835.52
2018-11-06T00:19:11.679Z,100825.38
2018-11-06T00:21:40.266Z,100812.72
2018-11-06T00:24:09.423Z,100714.64
2018-11-06T00:26:37.910Z,100820.63
2018-11-06T00:29:06.720Z,100797.67
2018-11-06T00:31:35.376Z,100796.36
2018-11-06T00:34:03.935Z,100788.81
2018-11-06T00:36:32.418Z,100794.89
2018-11-06T00:39:00.895Z,100782.75
2018-11-06T00:41:29.906Z,100779.20
2018-11-06T00:43:58.426Z,100773.13
2018-11-06T00:46:27.043Z,100772.20
2018-11-06T00:48:55.531Z,100772.05
2018-11-06T00:51:24.063Z,100765.94
2018-11-06T00:53:52.820Z,100770.34
2018-11-06T00:56:21.403Z,100764.12
2018-11-06T00:58:51.097Z,100759.72
2018-11-06T01:01:19.680Z,100757.08
2018-11-06T01:03:49.798Z,100750.10
2018-11-06T01:06:18.483Z,100754.06
2018-11-06T01:08:47.559Z,100753.98
2018-11-06T01:11:16.339Z,100747.77
2018-11-06T01:13:45.376Z,100744.83
2018-11-06T01:16:13.956Z,100743.02
2018-11-06T01:18:42.592Z,100730.61
2018-11-06T01:21:11.590Z,100731.94
2018-11-06T01:23:40.114Z,100722.70
2018-11-06T01:26:09.004Z,100727.82
2018-11-06T01:28:37.484Z,100727.82
2018-11-06T01:31:06.516Z,100661.20
2018-11-06T01:33:35.002Z,100726.88
2018-11-06T01:36:03.752Z,100725.03
2018-11-06T01:38:32.294Z,100723.30
2018-11-06T01:41:01.019Z,100708.78
2018-11-06T01:43:29.526Z,100707.31
2018-11-06T01:45:58.030Z,100704.30
2018-11-06T01:48:26.919Z,100690.72
2018-11-06T01:50:55.388Z,100700.34
2018-11-06T01:53:24.342Z,100587.03
2018-11-06T01:55:52.919Z,100702.45
2018-11-06T01:58:21.702Z,100695.84
2018-11-06T02:00:50.185Z,100685.29
2018-11-06T02:03:18.844Z,100683.41
2018-11-06T02:05:47.455Z,100671.37
2018-11-06T02:08:16.043Z,100668.52
2018-11-06T02:10:44.986Z,100678.13
2018-11-06T02:13:13.453Z,100681.17
2018-11-06T02:15:42.413Z,100674.42
2018-11-06T02:18:10.985Z,100672.61
2018-11-06T02:20:39.506Z,100671.78
2018-11-06T02:23:08.066Z,100656.77
2018-11-06T02:25:36.538Z,100659.41
2018-11-06T02:28:05.555Z,100665.94
2018-11-06T02:30:34.011Z,100655.79
2018-11-06T02:33:02.702Z,100663.70
2018-11-06T02:35:31.170Z,100661.60
2018-11-06T02:37:59.698Z,100657.56
2018-11-06T02:40:28.174Z,100664.46
2018-11-06T02:42:56.626Z,100661.98
2018-11-06T02:45:25.195Z,100653.30
2018-11-06T02:47:53.699Z,100652.36
2018-11-06T02:50:23.019Z,100593.70
2018-11-06T02:52:51.494Z,100643.50
2018-11-06T02:55:20.674Z,100631.09
2018-11-06T02:57:49.171Z,100639.00
2018-11-06T03:00:18.593Z,100634.97
2018-11-06T03:02:48.037Z,100643.18
2018-11-06T03:05:16.620Z,100652.83
2018-11-06T03:07:45.121Z,100655.06
2018-11-06T03:10:14.502Z,100650.19
2018-11-06T03:12:43.645Z,100523.52
2018-11-06T03:15:13.475Z,100645.66
2018-11-06T03:17:42.175Z,100571.54
2018-11-06T03:20:11.538Z,100627.59
2018-11-06T03:22:41.055Z,100621.41
2018-11-06T03:25:09.579Z,100605.56
2018-11-06T03:27:38.273Z,100554.61
2018-11-06T03:30:09.150Z,100602.59
2018-11-06T03:32:38.506Z,100563.07
2018-11-06T03:35:07.499Z,100612.29
2018-11-06T03:37:36.146Z,100547.30
2018-11-06T03:40:05.074Z,100613.86
2018-11-06T03:42:34.098Z,100620.87
2018-11-06T03:45:02.575Z,100621.62
2018-11-06T03:47:31.247Z,100612.38
2018-11-06T03:49:59.759Z,100618.60
2018-11-06T03:52:28.362Z,100625.98
2018-11-06T03:54:57.384Z,100631.27
2018-11-06T03:57:25.974Z,100616.34
2018-11-06T03:59:54.903Z,100621.08
2018-11-06T04:02:23.478Z,100612.70
2018-11-06T04:04:52.653Z,100610.06
2018-11-06T04:07:21.123Z,100619.68
2018-11-06T04:09:49.774Z,100608.17
2018-11-06T04:12:18.315Z,100614.31
2018-11-06T04:14:46.859Z,100611.59
2018-11-06T04:17:15.778Z,100608.50
2018-11-06T04:19:44.270Z,100600.17
2018-11-06T04:22:13.123Z,100534.72
2018-11-06T04:24:41.654Z,100596.21
2018-11-06T04:27:10.514Z,100595.84
2018-11-06T04:29:39.214Z,100598.02
2018-11-06T04:32:07.735Z,100587.38
2018-11-06T04:34:36.340Z,100592.17
2018-11-06T04:37:04.826Z,100586.97
2018-11-06T04:39:33.938Z,100590.84
2018-11-06T04:42:02.458Z,100600.09
2018-11-06T04:44:31.226Z,100592.09
2018-11-06T04:46:59.884Z,100592.09
2018-11-06T04:49:28.433Z,100587.22
2018-11-06T04:51:57.070Z,100585.81
2018-11-06T04:54:25.632Z,100578.72
2018-11-06T04:56:54.618Z,100576.16
2018-11-06T04:59:23.150Z,100582.31
2018-11-06T05:01:52.280Z,100499.77
2018-11-06T05:04:20.882Z,100562.50
2018-11-06T05:06:49.468Z,100559.48
2018-11-06T05:09:18.055Z,100554.95
2018-11-06T05:11:46.575Z,100549.30
2018-11-06T05:14:15.313Z,100537.75
2018-11-06T05:16:43.775Z,100546.95
2018-11-06T05:19:12.684Z,100542.98
2018-11-06T05:21:41.182Z,100534.23
2018-11-06T05:24:09.992Z,100536.30
2018-11-06T05:26:38.643Z,100529.78
2018-11-06T05:29:07.296Z,100527.63
2018-11-06T05:31:35.835Z,100534.61
2018-11-06T05:34:04.455Z,100530.11
2018-11-06T05:36:33.125Z,100528.37
2018-11-06T05:39:01.684Z,100526.14
2018-11-06T05:41:30.549Z,100522.19
2018-11-06T05:43:59.106Z,100517.81
2018-11-06T05:46:27.790Z,100511.63
2018-11-06T05:48:56.267Z,100510.84
2018-11-06T05:51:25.011Z,100516.78
2018-11-06T05:53:53.755Z,100513.31
2018-11-06T05:56:22.261Z,100517.66
2018-11-06T05:58:51.149Z,100509.36
2018-11-06T06:01:19.656Z,100511.63
2018-11-06T06:03:48.537Z,100510.67
2018-11-06T06:06:17.089Z,100501.06
2018-11-06T06:08:45.702Z,100491.58
2018-11-06T06:11:14.309Z,100495.95
2018-11-06T06:13:42.795Z,100498.59
2018-11-06T06:16:11.703Z,100488.94
2018-11-06T06:18:40.262Z,100480.03
2018-11-06T06:21:08.852Z,100444.96
2018-11-06T06:23:37.364Z,100480.61
2018-11-06T06:26:06.351Z,100458.96
2018-11-06T06:28:35.005Z,100459.25
2018-11-06T06:31:03.582Z,100474.89
2018-11-06T06:33:32.219Z,100447.27
2018-11-06T06:36:00.706Z,100453.91
2018-11-06T06:38:29.548Z,100434.64
2018-11-06T06:40:58.147Z,100434.81
2018-11-06T06:43:26.627Z,100444.63
2018-11-06T06:45:55.122Z,100452.05
2018-11-06T06:48:23.678Z,100463.10
2018-11-06T06:50:52.215Z,100461.38
2018-11-06T06:53:20.738Z,100461.98
2018-11-06T06:55:49.776Z,100473.50
2018-11-06T06:58:18.281Z,100474.23
2018-11-06T07:00:47.249Z,100477.28
2018-11-06T07:03:15.742Z,100480.30
2018-11-06T07:05:44.434Z,100479.76
2018-11-06T07:08:13.263Z,100482.80
2018-11-06T07:10:42.154Z,100483.18
2018-11-06T07:13:11.009Z,100468.66
2018-11-06T07:15:39.625Z,100479.27
2018-11-06T07:18:08.494Z,100487.46
2018-11-06T07:20:36.974Z,100488.78
2018-11-06T07:23:06.037Z,100488.29
2018-11-06T07:25:34.583Z,100487.38
2018-11-06T07:28:03.678Z,100488.70
2018-11-06T07:30:32.691Z,100485.11
2018-11-06T07:33:01.456Z,100486.63
2018-11-06T07:35:30.186Z,100485.28
2018-11-06T07:37:58.738Z,100489.27
2018-11-06T07:40:27.806Z,100493.56
2018-11-06T07:42:56.375Z,100489.52
2018-11-06T07:45:25.380Z,100373.58
2018-11-06T07:47:54.012Z,100495.54
2018-11-06T07:50:23.086Z,100500.82
2018-11-06T07:52:51.915Z,100495.95
2018-11-06T07:55:20.849Z,100506.51
2018-11-06T07:57:49.643Z,100501.97
2018-11-06T08:00:22.453Z,100499.16
2018-11-06T08:02:51.871Z,100509.73
2018-11-06T08:05:20.802Z,100515.38
2018-11-06T08:07:50.098Z,100505.59
2018-11-06T08:10:18.943Z,100507.70
2018-11-06T08:12:48.994Z,100500.52
2018-11-06T08:15:17.730Z,100489.03
2018-11-06T08:17:46.575Z,100508.27
2018-11-06T08:20:15.458Z,100488.29
2018-11-06T08:22:44.114Z,100459.30
2018-11-06T08:25:13.788Z,100477.01
2018-11-06T08:27:43.237Z,100459.47
2018-11-06T08:30:12.587Z,100486.28
2018-11-06T08:32:41.692Z,100476.12
2018-11-06T08:35:12.375Z,100497.97
2018-11-06T08:37:41.162Z,100487.86
2018-11-06T08:40:10.972Z,100492.62
2018-11-06T08:42:39.555Z,100503.30
2018-11-06T08:45:09.911Z,100508.78
2018-11-06T08:47:38.890Z,100504.55
2018-11-06T08:50:08.820Z,100509.66
2018-11-06T08:52:37.579Z,100510.08
2018-11-06T08:55:07.674Z,100497.05
2018-11-06T08:57:36.447Z,100497.19
2018-11-06T09:00:06.524Z,100501.44
2018-11-06T09:02:35.179Z,100377.25
2018-11-06T09:05:03.803Z,100501.08
2018-11-06T09:07:32.643Z,100483.11
2018-11-06T09:10:01.211Z,100499.75
2018-11-06T09:12:29.842Z,100498.44
2018-11-06T09:14:59.603Z,100496.34
2018-11-06T09:17:28.333Z,100493.16
2018-11-06T09:19:56.996Z,100500.53
2018-11-06T09:22:25.500Z,100499.40
2018-11-06T09:24:54.191Z,100389.13
2018-11-06T09:27:22.815Z,100499.40
2018-11-06T09:29:51.623Z,100495.62
2018-11-06T09:32:20.135Z,100488.81
2018-11-06T09:34:49.567Z,100492.23
2018-11-06T09:37:18.085Z,100501.31
2018-11-06T09:39:46.697Z,100506.79
2018-11-06T09:42:15.308Z,100501.50
2018-11-06T09:44:43.870Z,100511.13
2018-11-06T09:47:12.773Z,100415.22
2018-11-06T09:49:41.392Z,100514.82
2018-11-06T09:52:10.524Z,100511.53
2018-11-06T09:54:39.087Z,100501.91
2018-11-06T09:57:07.715Z,100502.36
2018-11-06T09:59:36.195Z,100500.95
2018-11-06T10:02:04.752Z,100510.39
2018-11-06T10:04:33.250Z,100508.52
2018-11-06T10:07:01.969Z,100510.98
2018-11-06T10:09:30.675Z,100518.73
2018-11-06T10:11:59.803Z,100517.88
2018-11-06T10:14:28.698Z,100518.58
2018-11-06T10:16:57.218Z,100518.40
2018-11-06T10:19:25.794Z,100513.75
2018-11-06T10:21:54.323Z,100513.47
2018-11-06T10:24:22.806Z,100510.82
2018-11-06T10:26:51.910Z,100506.30
2018-11-06T10:29:20.772Z,100505.25
2018-11-06T10:31:49.738Z,100506.48
2018-11-06T10:34:18.243Z,100497.02
2018-11-06T10:36:46.995Z,100496.28
2018-11-06T10:39:15.559Z,100489.10
2018-11-06T10:41:44.178Z,100483.22
2018-11-06T10:44:12.905Z,100485.86
2018-11-06T10:46:41.411Z,100494.02
2018-11-06T10:49:10.646Z,100489.86
2018-11-06T10:51:39.387Z,100484.56
2018-11-06T10:54:08.587Z,100483.23
2018-11-06T10:56:37.679Z,100492.50
2018-11-06T10:59:06.747Z,100494.19
2018-11-06T11:01:40.483Z,100491.36
2018-11-06T11:04:14.308Z,100492.48
2018-11-06T11:06:43.262Z,100483.02
2018-11-06T11:09:12.191Z,100478.49
2018-11-06T11:11:41.091Z,100475.75
2018-11-06T11:14:09.714Z,100467.90
2018-11-06T11:16:38.631Z,100471.08
2018-11-06T11:19:07.110Z,100475.06
2018-11-06T11:21:35.614Z,100483.17
2018-11-06T11:24:04.183Z,100480.91
2018-11-06T11:26:32.675Z,100482.59
2018-11-06T11:29:01.621Z,100484.48
2018-11-06T11:31:30.116Z,100486.27
2018-11-06T11:33:58.952Z,100378.47
2018-11-06T11:36:27.447Z,100497.91
2018-11-06T11:38:56.070Z,100501.98
2018-11-06T11:41:24.566Z,100497.91
2018-11-06T11:43:53.352Z,100492.60
2018-11-06T11:46:22.119Z,100485.91
2018-11-06T11:48:50.827Z,100481.45
2018-11-06T11:51:19.854Z,100389.05
2018-11-06T11:53:48.363Z,100480.48
2018-11-06T11:56:17.243Z,100470.48
2018-11-06T11:58:45.759Z,100477.37
2018-11-06T12:01:14.358Z,100474.63
2018-11-06T12:03:42.915Z,100461.01
2018-11-06T12:06:11.431Z,100471.41
2018-11-06T12:08:40.286Z,100475.78
2018-11-06T12:11:08.794Z,100480.12
2018-11-06T12:13:37.552Z,100475.38
2018-11-06T12:16:06.262Z,100473.33
2018-11-06T12:18:35.147Z,100468.49
2018-11-06T12:21:03.695Z,100477.00
2018-11-06T12:23:32.304Z,100473.12
2018-11-06T12:26:00.999Z,100466.50
2018-11-06T12:28:29.476Z,100474.64
2018-11-06T12:30:58.546Z,100389.44
2018-11-06T12:33:27.026Z,100483.75
2018-11-06T12:35:56.034Z,100493.39
2018-11-06T12:38:24.511Z,100499.45
2018-11-06T12:40:53.101Z,100498.69
2018-11-06T12:43:21.759Z,100490.00
2018-11-06T12:45:50.318Z,100499.45
2018-11-06T12:48:19.114Z,100444.24
2018-11-06T12:50:47.650Z,100495.28
2018-11-06T12:53:16.699Z,100493.59
2018-11-06T12:55:45.170Z,100488.85
2018-11-06T12:58:13.917Z,100496.80
2018-11-06T13:00:42.447Z,100492.27
2018-11-06T13:03:11.009Z,100495.84
2018-11-06T13:05:39.635Z,100501.14
2018-11-06T13:08:08.119Z,100497.36
2018-11-06T13:10:37.291Z,100503.98
2018-11-06T13:13:06.119Z,100503.34
2018-11-06T13:15:35.078Z,100455.23
2018-11-06T13:18:03.524Z,100503.45
2018-11-06T13:20:32.136Z,100510.06
2018-11-06T13:23:00.664Z,100509.67
2018-11-06T13:25:29.222Z,100508.94
2018-11-06T13:27:58.027Z,100497.03
2018-11-06T13:30:26.642Z,100505.62
2018-11-06T13:32:55.643Z,100445.49
2018-11-06T13:35:24.196Z,100499.09
2018-11-06T13:37:52.863Z,100498.36
2018-11-06T13:40:21.348Z,100492.66
2018-11-06T13:42:50.013Z,100499.47
2018-11-06T13:45:20.912Z,100501.75
2018-11-06T13:47:49.350Z,100502.72
2018-11-06T13:50:17.982Z,100494.00
2018-11-06T13:52:46.531Z,100492.31
2018-11-06T13:55:16.031Z,100491.17
2018-11-06T13:57:45.314Z,100493.62
2018-11-06T14:00:16.464Z,100429.14
2018-11-06T14:02:45.189Z,100496.64
2018-11-06T14:05:14.515Z,100388.87
2018-11-06T14:07:43.023Z,100504.04
2018-11-06T14:10:12.159Z,100506.97
2018-11-06T14:12:41.496Z,100514.23
2018-11-06T14:15:10.551Z,100520.67
2018-11-06T14:17:39.581Z,100519.13
2018-11-06T14:20:13.592Z,100521.23
2018-11-06T14:22:42.421Z,100508.70
2018-11-06T14:25:11.065Z,100501.31
2018-11-06T14:27:39.597Z,100521.53
2018-11-06T14:30:12.284Z,100528.51
2018-11-06T14:32:41.264Z,100536.44
2018-11-06T14:35:11.435Z,100527.72
2018-11-06T14:37:40.914Z,100530.52
2018-11-06T14:40:10.474Z,100530.11
2018-11-06T14:42:40.241Z,100464.95
2018-11-06T14:45:10.322Z,100549.89
2018-11-06T14:47:39.201Z,100499.75
2018-11-06T14:50:08.617Z,100554.86
2018-11-06T14:52:37.703Z,100427.73
2018-11-06T14:55:07.538Z,100547.80
2018-11-06T14:57:36.686Z,100552.54
2018-11-06T15:00:06.891Z,100562.25
2018-11-06T15:02:35.927Z,100555.55
2018-11-06T15:05:04.622Z,100569.55
2018-11-06T15:07:33.587Z,100558.97
2018-11-06T15:10:02.250Z,100565.95
2018-11-06T15:12:31.048Z,100562.36
2018-11-06T15:14:59.820Z,100564.91
2018-11-06T15:17:28.383Z,100572.84
2018-11-06T15:19:57.283Z,100453.87
2018-11-06T15:22:25.754Z,100581.64
2018-11-06T15:24:54.797Z,100572.39
2018-11-06T15:27:23.350Z,100571.06
2018-11-06T15:29:52.210Z,100573.16
2018-11-06T15:32:20.722Z,100564.83
2018-11-06T15:34:49.347Z,100568.42
2018-11-06T15:37:17.895Z,100571.84
2018-11-06T15:39:46.499Z,100573.16
2018-11-06T15:42:15.229Z,100579.77
2018-11-06T15:44:43.727Z,100576.73
2018-11-06T15:47:12.385Z,100586.93
2018-11-06T15:49:41.063Z,100578.91
2018-11-06T15:52:09.563Z,100586.38
2018-11-06T15:54:38.196Z,100586.21
2018-11-06T15:57:06.634Z,100585.26
2018-11-06T15:59:35.437Z,100585.63
2018-11-06T16:02:03.959Z,100583.39
2018-11-06T16:04:33.014Z,100586.03
2018-11-06T16:07:01.691Z,100590.00
2018-11-06T16:09:30.430Z,100595.30
2018-11-06T16:11:58.969Z,100594.42
2018-11-06T16:14:27.493Z,100594.34
2018-11-06T16:16:56.054Z,100545.81
2018-11-06T16:19:24.802Z,100600.09
2018-11-06T16:21:53.671Z,100598.22
2018-11-06T16:24:22.177Z,100598.59
2018-11-06T16:26:51.041Z,100605.98
2018-11-06T16:29:19.605Z,100610.81
2018-11-06T16:31:48.178Z,100610.81
2018-11-06T16:34:16.735Z,100621.39
2018-11-06T16:36:45.318Z,100616.09
2018-11-06T16:39:13.907Z,100610.41
2018-11-06T16:41:42.703Z,100617.25
2018-11-06T16:44:11.498Z,100619.40
2018-11-06T16:46:39.978Z,100620.81
2018-11-06T16:49:08.633Z,100620.44
2018-11-06T16:51:37.209Z,100621.67
2018-11-06T16:54:06.153Z,100623.08
2018-11-06T16:56:34.893Z,100626.09
2018-11-06T16:59:03.418Z,100638.86
2018-11-06T17:01:32.212Z,100626.59
2018-11-06T17:04:00.750Z,100625.73
2018-11-06T17:06:35.593Z,100624.03
2018-11-06T17:09:05.317Z,100625.73
2018-11-06T17:11:33.887Z,100625.73
2018-11-06T17:14:02.494Z,100625.73
2018-11-06T17:16:31.031Z,100621.64
2018-11-06T17:18:59.586Z,100621.39
2018-11-06T17:21:28.392Z,100618.74
2018-11-06T17:23:56.895Z,100618.74
2018-11-06T17:26:25.623Z,100611.72
2018-11-06T17:28:54.118Z,100612.13
2018-11-06T17:31:22.700Z,100629.32
2018-11-06T17:33:51.371Z,100615.20
2018-11-06T17:36:19.879Z,100629.32
2018-11-06T17:38:48.654Z,100632.34
2018-11-06T17:41:17.166Z,100641.59
2018-11-06T17:43:46.023Z,100638.95
2018-11-06T17:46:15.815Z,100639.89
2018-11-06T17:48:44.539Z,100634.61
2018-11-06T17:51:13.048Z,100640.19
2018-11-06T17:53:41.547Z,100647.17
2018-11-06T17:56:10.051Z,100644.06
2018-11-06T17:58:38.535Z,100648.41
2018-11-06T18:01:08.247Z,100649.18
2018-11-06T18:03:36.815Z,100647.86
2018-11-06T18:06:05.955Z,100648.23
2018-11-06T18:08:34.467Z,100641.62
2018-11-06T18:11:03.598Z,100644.67
2018-11-06T18:13:32.228Z,100646.45
2018-11-06T18:16:00.946Z,100648.23
2018-11-06T18:18:31.985Z,100645.04
2018-11-06T18:21:00.822Z,100640.13
2018-11-06T18:23:29.467Z,100654.67
2018-11-06T18:25:58.100Z,100644.00
2018-11-06T18:28:26.794Z,100648.83
2018-11-06T18:30:56.183Z,100652.40
2018-11-06T18:33:24.896Z,100664.70
2018-11-06T18:35:53.414Z,100659.41
2018-11-06T18:38:23.408Z,100666.40
2018-11-06T18:40:51.963Z,100668.58
2018-11-06T18:43:20.956Z,100669.05
2018-11-06T18:45:52.375Z,100673.39
2018-11-06T18:48:21.359Z,100648.83
2018-11-06T18:50:49.896Z,100671.14
2018-11-06T18:53:20.028Z,100680.77
2018-11-06T18:55:48.550Z,100679.08
2018-11-06T18:58:17.694Z,100686.06
2018-11-06T19:00:46.126Z,100681.73
2018-11-06T19:03:14.963Z,100695.33
2018-11-06T19:05:43.464Z,100687.39
2018-11-06T19:08:12.089Z,100692.84
2018-11-06T19:10:40.692Z,100696.45
2018-11-06T19:13:09.191Z,100695.87
2018-11-06T19:15:38.343Z,100622.86
2018-11-06T19:18:06.952Z,100694.05
2018-11-06T19:20:35.463Z,100703.26
2018-11-06T19:23:04.015Z,100702.30
2018-11-06T19:25:32.740Z,100707.02
2018-11-06T19:28:01.335Z,100707.02
2018-11-06T19:30:29.870Z,100713.81
2018-11-06T19:32:59.064Z,100722.89
2018-11-06T19:35:27.749Z,100719.30
2018-11-06T19:37:56.572Z,100721.95
2018-11-06T19:40:25.155Z,100722.89
2018-11-06T19:42:53.754Z,100722.03
2018-11-06T19:45:22.343Z,100727.78
2018-11-06T19:47:51.106Z,100721.16
2018-11-06T19:50:20.155Z,100728.35
2018-11-06T19:52:48.899Z,100731.38
2018-11-06T19:55:19.461Z,100737.61
2018-11-06T19:57:48.023Z,100720.38
2018-11-06T20:00:18.420Z,100739.88
2018-11-06T20:02:48.292Z,100740.80
2018-11-06T20:05:17.061Z,100737.41
2018-11-06T20:07:46.334Z,100744.02
2018-11-06T20:10:16.698Z,100752.41
2018-11-06T20:12:46.326Z,100748.53
2018-11-06T20:15:15.775Z,100747.38
2018-11-06T20:17:45.108Z,100746.59
2018-11-06T20:20:28.578Z,100752.99
2018-11-06T20:22:57.223Z,100753.37
2018-11-06T20:25:25.826Z,100753.86
2018-11-06T20:27:54.362Z,100752.91
2018-11-06T20:30:27.051Z,100756.42
2018-11-06T20:32:55.812Z,100753.78
2018-11-06T20:35:24.420Z,100762.63
2018-11-06T20:37:53.036Z,100757.91
2018-11-06T20:40:23.114Z,100758.37
2018-11-06T20:42:51.890Z,100761.09
2018-11-06T20:45:21.350Z,100755.36
2018-11-06T20:47:49.915Z,100778.07
2018-11-06T20:50:20.162Z,100777.13
2018-11-06T20:52:49.126Z,100776.75
2018-11-06T20:55:18.514Z,100774.19
2018-11-06T20:57:47.234Z,100776.34
2018-11-06T21:00:29.025Z,100772.00
2018-11-06T21:02:58.999Z,100772.00
2018-11-06T21:05:28.091Z,100783.20
2018-11-06T21:07:56.711Z,100776.13
2018-11-06T21:10:27.158Z,100775.75
2018-11-06T21:12:55.726Z,100767.41
2018-11-06T21:15:24.512Z,100775.75
2018-11-06T21:17:53.131Z,100773.11
2018-11-06T21:20:21.871Z,100780.09
2018-11-06T21:22:50.363Z,100774.81
2018-11-06T21:25:19.006Z,100772.70
2018-11-06T21:27:47.948Z,100772.33
2018-11-06T21:30:17.876Z,100772.78
2018-11-06T21:32:48.079Z,100779.31
2018-11-06T21:35:16.610Z,100771.46
2018-11-06T21:37:45.653Z,100768.82
2018-11-06T21:40:17.117Z,100769.69
2018-11-06T21:42:46.091Z,100772.33
2018-11-06T21:45:15.171Z,100774.19
2018-11-06T21:47:44.843Z,100774.97
2018-11-06T21:50:14.215Z,100769.69
2018-11-06T21:52:43.038Z,100774.97
2018-11-06T21:55:12.850Z,100773.66
2018-11-06T21:57:41.659Z,100776.67
2018-11-06T22:00:13.046Z,100776.67
2018-11-06T22:02:41.622Z,100775.75
2018-11-06T22:05:12.536Z,100776.67
2018-11-06T22:07:41.654Z,100768.16
2018-11-06T22:10:12.791Z,100785.84
2018-11-06T22:12:42.241Z,100781.05
2018-11-06T22:15:11.818Z,100779.72
2018-11-06T22:17:40.757Z,100786.70
2018-11-06T22:20:11.532Z,100792.94
2018-11-06T22:22:40.572Z,100786.70
2018-11-06T22:25:09.624Z,100792.94
2018-11-06T22:27:38.284Z,100794.80
2018-11-06T22:30:08.863Z,100785.17
2018-11-06T22:32:37.414Z,100788.65
2018-11-06T22:35:07.570Z,100780.26
2018-11-06T22:37:36.068Z,100778.94
2018-11-06T22:40:04.843Z,100787.25
2018-11-06T22:42:33.335Z,100789.34
2018-11-06T22:45:01.859Z,100790.67
2018-11-06T22:47:30.647Z,100789.89
2018-11-06T22:49:59.236Z,100793.48
2018-11-06T22:52:28.059Z,100791.62
2018-11-06T22:54:56.606Z,100791.62
2018-11-06T22:57:25.183Z,100788.03
2018-11-06T22:59:53.686Z,100794.18
2018-11-06T23:02:22.216Z,100798.23
2018-11-06T23:04:51.040Z,100782.36
2018-11-06T23:07:24.923Z,100800.09
2018-11-06T23:09:53.398Z,100808.39
2018-11-06T23:12:22.144Z,100814.47
2018-11-06T23:14:50.696Z,100810.88
2018-11-06T23:17:19.223Z,100809.96
2018-11-06T23:19:48.033Z,100806.37
2018-11-06T23:22:16.650Z,100804.67
2018-11-06T23:24:45.693Z,100807.31
2018-11-06T23:27:14.153Z,100814.38
2018-11-06T23:29:42.831Z,100820.62
2018-11-06T23:32:11.342Z,100817.98
2018-11-06T23:34:39.894Z,100816.73
2018-11-06T23:37:08.422Z,100811.45
2018-11-06T23:39:37.007Z,100812.77
2018-11-06T23:42:06.083Z,100810.13
2018-11-06T23:44:34.555Z,100812.36
2018-11-06T23:47:03.546Z,100813.69
2018-11-06T23:49:32.040Z,100811.12
2018-11-06T23:52:00.580Z,100805.83
2018-11-06T23:54:29.094Z,100803.67
2018-11-06T23:56:57.690Z,100748.00
2018-11-06T23:59:26.725Z,100807.80
